Time;durP1;ratioP1;P1;durP2;ratioP2;P2;SDS_P1;SDS_P2;PMS_P1;PMS_P2;Temp;Humidity;BMP_temperature;BMP_pressure;BME280_temperature;BME280_humidity;BME280_pressure;Samples;Min_cycle;Max_cycle;Signal;HPM_P1;HPM_P2
2023/04/10 00:01:04;;;;;;;14.40;8.98;;;4.40;99.90;;;;;;4964839;28;20042;-68
2023/04/10 00:03:30;;;;;;;7.32;6.10;;;4.30;99.90;;;;;;4965764;28;20046;-69
2023/04/10 00:05:56;;;;;;;8.50;6.38;;;4.30;99.90;;;;;;4958420;28;20105;-69
2023/04/10 00:08:25;;;;;;;9.10;6.75;;;4.20;99.90;;;;;;4963064;28;20052;-69
2023/04/10 00:10:52;;;;;;;10.55;7.60;;;4.20;99.90;;;;;;4957035;28;20065;-69
2023/04/10 00:13:17;;;;;;;8.75;6.63;;;4.10;99.90;;;;;;4953458;28;20038;-69
2023/04/10 00:15:43;;;;;;;9.43;7.15;;;4.10;99.90;;;;;;4962704;28;20566;-68
2023/04/10 00:18:09;;;;;;;9.40;7.55;;;4.10;99.90;;;;;;4971546;28;20158;-69
2023/04/10 00:20:34;;;;;;;8.82;6.53;;;4.20;99.90;;;;;;4962495;28;20038;-68
2023/04/10 00:23:00;;;;;;;7.53;6.43;;;4.30;99.90;;;;;;4967612;28;20035;-68
2023/04/10 00:25:26;;;;;;;10.32;7.40;;;4.20;99.90;;;;;;4968326;28;20034;-69
2023/04/10 00:27:54;;;;;;;8.82;6.97;;;4.20;99.90;;;;;;4956091;28;20097;-69
2023/04/10 00:30:20;;;;;;;11.63;8.90;;;4.20;99.90;;;;;;4967870;28;20601;-67
2023/04/10 00:32:46;;;;;;;11.85;8.20;;;4.20;99.90;;;;;;4962008;28;20121;-67
2023/04/10 00:35:12;;;;;;;12.15;8.82;;;4.20;99.90;;;;;;4960262;28;20096;-67
2023/04/10 00:37:38;;;;;;;12.50;8.93;;;4.20;99.90;;;;;;4963274;28;20058;-66
2023/04/10 00:40:05;;;;;;;10.48;8.63;;;4.20;99.90;;;;;;4977581;28;20466;-66
2023/04/10 00:42:31;;;;;;;11.93;9.18;;;4.10;99.90;;;;;;4967352;28;20031;-66
2023/04/10 00:44:57;;;;;;;11.40;9.18;;;4.10;99.90;;;;;;4966453;28;20126;-65
2023/04/10 00:47:24;;;;;;;11.52;7.68;;;4.20;99.90;;;;;;4968537;28;20027;-68
2023/04/10 00:49:50;;;;;;;8.40;6.40;;;4.20;99.90;;;;;;4964203;28;20070;-68
2023/04/10 00:52:16;;;;;;;6.95;5.80;;;4.30;99.90;;;;;;4965792;28;20507;-68
2023/04/10 00:54:42;;;;;;;8.02;6.22;;;4.20;99.90;;;;;;4961911;28;21160;-68
2023/04/10 00:57:08;;;;;;;7.10;6.10;;;4.20;99.90;;;;;;4950396;28;20047;-68
2023/04/10 00:59:34;;;;;;;8.00;5.65;;;4.20;99.90;;;;;;4962883;28;20041;-68
2023/04/10 01:02:00;;;;;;;7.93;5.25;;;4.10;99.90;;;;;;4966232;28;20411;-68
2023/04/10 01:04:27;;;;;;;8.95;6.70;;;4.10;99.90;;;;;;4957506;28;20038;-69
2023/04/10 01:07:03;;;;;;;8.55;7.20;;;4.10;99.90;;;;;;4962016;28;21990;-68
2023/04/10 01:09:43;;;;;;;8.10;6.28;;;3.90;99.90;;;;;;4958166;28;20034;-69
2023/04/10 01:12:30;;;;;;;6.82;5.72;;;3.90;99.90;;;;;;4961264;28;20064;-69
2023/04/10 01:15:15;;;;;;;8.60;6.70;;;4.00;99.90;;;;;;4967567;28;20523;-69
2023/04/10 01:18:16;;;;;;;7.63;6.30;;;4.10;99.90;;;;;;4963982;28;20058;-69
2023/04/10 01:20:42;;;;;;;7.93;6.78;;;4.00;99.90;;;;;;4960000;28;20395;-67
2023/04/10 01:23:20;;;;;;;9.10;7.35;;;4.10;99.90;;;;;;4963217;28;20043;-69
2023/04/10 01:26:00;;;;;;;9.63;7.38;;;4.00;99.90;;;;;;4963947;28;22453;-69
2023/04/10 01:28:59;;;;;;;10.05;7.18;;;4.10;99.90;;;;;;4963719;28;20593;-69
2023/04/10 01:31:49;;;;;;;7.63;6.40;;;4.10;99.90;;;;;;4961452;28;20110;-69
2023/04/10 01:34:21;;;;;;;6.22;5.18;;;4.10;99.90;;;;;;4953318;28;20146;-68
2023/04/10 01:36:50;;;;;;;7.68;5.15;;;4.00;99.90;;;;;;4961988;28;20057;-68
2023/04/10 01:39:21;;;;;;;7.07;5.85;;;3.90;99.90;;;;;;4960363;28;20039;-68
2023/04/10 01:41:51;;;;;;;8.52;6.18;;;3.80;99.90;;;;;;4954610;28;20042;-67
2023/04/10 01:44:22;;;;;;;7.80;6.72;;;4.00;99.90;;;;;;4951182;28;20035;-67
2023/04/10 01:46:49;;;;;;;11.10;7.60;;;4.00;99.90;;;;;;4962408;28;20159;-67
2023/04/10 01:49:16;;;;;;;8.45;7.28;;;4.00;99.90;;;;;;4966488;28;20045;-69
2023/04/10 01:51:43;;;;;;;10.00;7.38;;;4.10;99.90;;;;;;4966844;28;20430;-70
2023/04/10 01:54:09;;;;;;;10.07;7.45;;;4.10;99.90;;;;;;4964031;28;20073;-69
2023/04/10 01:56:36;;;;;;;9.57;6.95;;;4.20;99.90;;;;;;4965407;28;20836;-69
2023/04/10 01:59:02;;;;;;;8.38;6.65;;;4.30;99.90;;;;;;4965188;28;20039;-69
2023/04/10 02:01:28;;;;;;;10.05;7.50;;;4.50;99.90;;;;;;4965426;28;20038;-69
2023/04/10 02:03:54;;;;;;;7.68;6.22;;;4.50;99.90;;;;;;4965071;28;20399;-69
2023/04/10 02:06:44;;;;;;;7.47;5.93;;;4.40;99.90;;;;;;4966215;28;20038;-68
2023/04/10 02:09:32;;;;;;;11.00;6.63;;;4.30;99.90;;;;;;4955819;28;20578;-69
2023/04/10 02:12:04;;;;;;;8.00;7.10;;;4.10;99.90;;;;;;4962948;28;20206;-69
2023/04/10 02:14:32;;;;;;;10.35;7.75;;;4.00;99.90;;;;;;4965122;28;20045;-69
2023/04/10 02:17:00;;;;;;;9.88;6.90;;;4.00;99.90;;;;;;4960980;28;20043;-69
2023/04/10 02:19:27;;;;;;;7.78;6.22;;;4.00;99.90;;;;;;4965257;28;20031;-68
2023/04/10 02:21:53;;;;;;;6.70;5.35;;;4.00;99.90;;;;;;4958301;28;20108;-69
2023/04/10 02:24:20;;;;;;;6.25;5.22;;;3.90;99.90;;;;;;4959009;28;20038;-68
2023/04/10 02:26:51;;;;;;;7.50;6.03;;;3.90;99.90;;;;;;4948172;28;20046;-69
2023/04/10 02:29:17;;;;;;;6.90;5.43;;;3.90;99.90;;;;;;4964895;28;20062;-69
2023/04/10 02:31:44;;;;;;;6.88;5.65;;;3.80;99.90;;;;;;4962187;28;20035;-68
2023/04/10 02:34:10;;;;;;;9.25;6.57;;;3.80;99.90;;;;;;4961092;28;20499;-68
2023/04/10 02:36:38;;;;;;;5.85;4.65;;;3.70;99.90;;;;;;4966622;28;20578;-68
2023/04/10 02:39:07;;;;;;;5.68;5.05;;;3.70;99.90;;;;;;4965660;28;20499;-68
2023/04/10 02:41:32;;;;;;;8.65;6.68;;;3.70;99.90;;;;;;4964367;28;20056;-69
2023/04/10 02:43:58;;;;;;;7.55;6.30;;;3.70;99.90;;;;;;4964983;28;20499;-69
2023/04/10 02:46:24;;;;;;;7.85;6.75;;;3.60;99.90;;;;;;4963234;28;20707;-70
2023/04/10 02:48:51;;;;;;;7.40;5.82;;;3.60;99.90;;;;;;4964104;28;21156;-69
2023/04/10 02:51:17;;;;;;;7.55;5.40;;;3.50;99.90;;;;;;4966388;28;20042;-69
2023/04/10 02:53:43;;;;;;;8.27;5.97;;;3.60;99.90;;;;;;4963551;28;20038;-69
2023/04/10 02:56:10;;;;;;;9.23;7.18;;;3.60;99.90;;;;;;4963370;28;20519;-69
2023/04/10 02:58:37;;;;;;;6.63;5.80;;;3.60;99.90;;;;;;4962697;28;20051;-69
2023/04/10 03:01:05;;;;;;;8.35;5.53;;;3.50;99.90;;;;;;4963924;28;20100;-69
2023/04/10 03:03:31;;;;;;;7.65;5.70;;;3.40;99.90;;;;;;4962261;28;20096;-68
2023/04/10 03:05:57;;;;;;;7.05;5.15;;;3.40;99.90;;;;;;4963320;28;20038;-69
2023/04/10 03:08:22;;;;;;;7.47;5.60;;;3.30;99.90;;;;;;4964535;28;20045;-69
2023/04/10 03:10:48;;;;;;;6.68;5.47;;;3.30;99.90;;;;;;4962326;28;20360;-68
2023/04/10 03:13:15;;;;;;;11.57;6.65;;;3.40;99.90;;;;;;4964896;28;20038;-69
2023/04/10 03:15:41;;;;;;;8.05;6.45;;;3.40;99.90;;;;;;4965233;28;20038;-69
2023/04/10 03:18:06;;;;;;;8.43;6.20;;;3.30;99.90;;;;;;4963498;28;20624;-68
2023/04/10 03:20:33;;;;;;;8.57;6.05;;;3.30;99.90;;;;;;4960809;28;20584;-68
2023/04/10 03:22:59;;;;;;;8.15;5.80;;;3.40;99.90;;;;;;4965519;28;20049;-68
2023/04/10 03:25:26;;;;;;;11.27;6.97;;;3.50;99.90;;;;;;4962856;28;20471;-69
2023/04/10 03:27:52;;;;;;;11.05;7.38;;;3.50;99.90;;;;;;4965724;28;20135;-69
2023/04/10 03:30:17;;;;;;;9.43;7.60;;;3.50;99.90;;;;;;4960135;28;20558;-68
2023/04/10 03:32:43;;;;;;;10.07;8.40;;;3.50;99.90;;;;;;4962132;28;20038;-69
2023/04/10 03:35:09;;;;;;;10.63;8.25;;;3.50;99.90;;;;;;4962496;28;20085;-69
2023/04/10 03:37:35;;;;;;;10.50;7.22;;;3.60;99.90;;;;;;4951517;28;20062;-69
2023/04/10 03:40:05;;;;;;;9.18;7.00;;;3.60;99.90;;;;;;4941493;28;20564;-69
2023/04/10 03:42:30;;;;;;;9.38;6.97;;;3.60;99.90;;;;;;4937454;28;20272;-69
2023/04/10 03:44:56;;;;;;;8.43;6.45;;;3.60;99.90;;;;;;4932819;28;20043;-68
2023/04/10 03:47:21;;;;;;;8.23;5.80;;;3.50;99.90;;;;;;4942753;28;20031;-69
2023/04/10 03:49:47;;;;;;;6.20;5.00;;;3.50;99.90;;;;;;4946067;28;20034;-69
2023/04/10 03:52:13;;;;;;;6.63;5.47;;;3.40;99.90;;;;;;4941078;28;20027;-69
2023/04/10 03:54:38;;;;;;;7.80;5.10;;;3.20;99.90;;;;;;4938243;28;20051;-69
2023/04/10 03:57:04;;;;;;;6.00;4.82;;;3.20;99.90;;;;;;4946099;28;20034;-69
2023/04/10 03:59:29;;;;;;;6.38;5.13;;;3.10;99.90;;;;;;4944783;28;20066;-68
2023/04/10 04:01:55;;;;;;;6.80;4.93;;;3.10;99.90;;;;;;4941556;28;20067;-68
2023/04/10 04:04:21;;;;;;;6.32;5.25;;;3.00;99.90;;;;;;4933298;28;20046;-68
2023/04/10 04:06:47;;;;;;;7.60;5.65;;;3.00;99.90;;;;;;4919435;28;20082;-69
2023/04/10 04:09:13;;;;;;;7.68;5.97;;;3.00;99.90;;;;;;4941350;28;20436;-69
2023/04/10 04:11:38;;;;;;;8.98;7.38;;;3.10;99.90;;;;;;4941038;28;20909;-68
2023/04/10 04:14:04;;;;;;;11.75;8.98;;;3.10;99.90;;;;;;4944481;28;20042;-68
2023/04/10 04:16:30;;;;;;;14.23;10.68;;;3.20;99.90;;;;;;4946502;28;20075;-69
2023/04/10 04:18:55;;;;;;;15.98;11.15;;;3.30;99.90;;;;;;4940658;28;20039;-69
2023/04/10 04:21:21;;;;;;;15.48;12.25;;;3.40;99.90;;;;;;4946934;28;20074;-69
2023/04/10 04:23:47;;;;;;;17.42;12.70;;;3.40;99.90;;;;;;4935693;28;20059;-68
2023/04/10 04:26:12;;;;;;;20.23;13.25;;;3.40;99.90;;;;;;4945640;28;20756;-69
2023/04/10 04:28:38;;;;;;;19.85;13.80;;;3.40;99.90;;;;;;4933448;28;20110;-69
2023/04/10 04:31:04;;;;;;;37.47;23.30;;;3.50;99.90;;;;;;4927904;28;20042;-68
2023/04/10 04:33:30;;;;;;;21.42;14.73;;;3.50;99.90;;;;;;4941122;28;20050;-69
2023/04/10 04:35:56;;;;;;;10.60;8.88;;;3.40;99.90;;;;;;4943435;28;20038;-69
2023/04/10 04:38:22;;;;;;;8.90;7.00;;;3.30;99.90;;;;;;4943235;28;20110;-69
2023/04/10 04:40:47;;;;;;;10.07;8.05;;;3.10;99.90;;;;;;4948161;28;20039;-69
2023/04/10 04:43:13;;;;;;;9.48;7.47;;;2.90;99.90;;;;;;4944274;28;20384;-68
2023/04/10 04:45:39;;;;;;;10.80;8.18;;;2.80;99.90;;;;;;4945188;28;21905;-68
2023/04/10 04:48:04;;;;;;;13.07;9.00;;;2.90;99.90;;;;;;4945754;28;20086;-69
2023/04/10 04:50:30;;;;;;;9.18;7.40;;;2.90;99.90;;;;;;4945265;28;20093;-69
2023/04/10 04:52:56;;;;;;;11.60;9.48;;;3.00;99.90;;;;;;4950757;28;20026;-69
2023/04/10 04:55:21;;;;;;;21.20;16.63;;;3.10;99.90;;;;;;4949179;28;20125;-69
2023/04/10 04:57:47;;;;;;;27.75;18.02;;;3.10;99.90;;;;;;4956528;28;20989;-69
2023/04/10 05:00:13;;;;;;;15.25;12.40;;;3.10;99.90;;;;;;4941816;28;20828;-69
2023/04/10 05:02:38;;;;;;;15.45;11.55;;;3.20;99.90;;;;;;4946107;28;20050;-69
2023/04/10 05:05:05;;;;;;;18.65;12.80;;;3.20;99.90;;;;;;4953389;28;20094;-69
2023/04/10 05:07:31;;;;;;;18.48;12.82;;;3.30;99.90;;;;;;4942925;28;20043;-69
2023/04/10 05:09:57;;;;;;;23.80;16.70;;;3.40;99.90;;;;;;4951699;28;20691;-69
2023/04/10 05:12:23;;;;;;;16.40;13.00;;;3.50;99.90;;;;;;4949999;28;20483;-66
2023/04/10 05:14:48;;;;;;;12.38;9.98;;;3.60;99.90;;;;;;4951079;28;20123;-65
2023/04/10 05:17:15;;;;;;;15.68;11.43;;;3.50;99.90;;;;;;4948593;28;20054;-65
2023/04/10 05:19:41;;;;;;;16.65;13.75;;;3.40;99.90;;;;;;4948917;28;20130;-65
2023/04/10 05:22:07;;;;;;;15.73;12.40;;;3.40;99.90;;;;;;4945592;28;20039;-66
2023/04/10 05:24:32;;;;;;;14.45;12.15;;;3.30;99.90;;;;;;4949169;28;20484;-66
2023/04/10 05:26:58;;;;;;;14.45;11.80;;;3.40;99.90;;;;;;4951657;28;20062;-65
2023/04/10 05:29:24;;;;;;;15.30;11.70;;;3.50;99.90;;;;;;4952084;28;20114;-66
2023/04/10 05:31:50;;;;;;;15.60;12.82;;;3.50;99.90;;;;;;4950455;28;20035;-66
2023/04/10 05:34:16;;;;;;;20.38;15.65;;;3.70;99.90;;;;;;4952117;28;20130;-66
2023/04/10 05:36:42;;;;;;;22.80;17.38;;;3.80;99.90;;;;;;4947322;28;20055;-69
2023/04/10 05:39:07;;;;;;;25.55;17.20;;;4.00;99.90;;;;;;4942618;28;20050;-69
2023/04/10 05:41:33;;;;;;;25.33;18.60;;;4.10;99.90;;;;;;4936926;28;20031;-69
2023/04/10 05:43:59;;;;;;;26.15;18.10;;;4.30;99.90;;;;;;4946411;28;20131;-69
2023/04/10 05:46:24;;;;;;;24.92;17.20;;;4.60;99.90;;;;;;4936259;28;20066;-70
2023/04/10 05:48:50;;;;;;;19.77;15.35;;;4.90;99.90;;;;;;4928903;28;20153;-69
2023/04/10 05:51:16;;;;;;;20.83;16.40;;;5.10;99.90;;;;;;4937567;28;20729;-69
2023/04/10 05:53:41;;;;;;;20.10;15.93;;;5.30;99.90;;;;;;4945357;28;20448;-69
2023/04/10 05:56:07;;;;;;;22.67;17.77;;;5.40;99.90;;;;;;4940756;28;20047;-69
2023/04/10 05:58:33;;;;;;;24.48;18.25;;;5.60;99.90;;;;;;4942733;28;20097;-69
2023/04/10 06:00:59;;;;;;;22.33;16.75;;;5.60;99.90;;;;;;4932699;28;21081;-69
2023/04/10 06:03:26;;;;;;;24.50;16.17;;;5.80;99.90;;;;;;4938138;28;20034;-69
2023/04/10 06:05:52;;;;;;;19.33;14.10;;;6.00;99.90;;;;;;4945464;28;21610;-69
2023/04/10 06:08:18;;;;;;;21.73;14.20;;;6.20;99.90;;;;;;4947935;28;20570;-69
2023/04/10 06:10:45;;;;;;;13.77;11.25;;;6.40;99.90;;;;;;4947107;28;20055;-66
2023/04/10 06:13:11;;;;;;;13.43;10.75;;;6.60;99.90;;;;;;4932838;28;20065;-67
2023/04/10 06:15:37;;;;;;;12.48;9.93;;;6.80;99.90;;;;;;4937023;28;20039;-66
2023/04/10 06:18:02;;;;;;;13.23;10.40;;;7.00;99.90;;;;;;4934456;28;20133;-66
2023/04/10 06:20:28;;;;;;;15.00;11.00;;;7.20;99.90;;;;;;4948069;28;20603;-66
2023/04/10 06:22:54;;;;;;;17.60;10.70;;;7.30;99.90;;;;;;4930117;28;20121;-66
2023/04/10 06:25:19;;;;;;;14.02;11.30;;;7.30;99.90;;;;;;4936535;28;20046;-66
2023/04/10 06:27:45;;;;;;;13.60;11.43;;;7.50;99.90;;;;;;4944166;28;20039;-66
2023/04/10 06:30:11;;;;;;;13.75;11.02;;;7.60;99.90;;;;;;4934305;28;20050;-66
2023/04/10 06:32:37;;;;;;;14.55;12.35;;;7.60;99.90;;;;;;4927802;28;20369;-66
2023/04/10 06:35:02;;;;;;;15.57;12.77;;;7.80;99.90;;;;;;4936688;28;20902;-66
2023/04/10 06:37:32;;;;;;;16.88;13.23;;;7.90;99.90;;;;;;4941224;28;20070;-66
2023/04/10 06:40:05;;;;;;;16.23;12.05;;;8.10;99.90;;;;;;4937222;28;20046;-67
2023/04/10 06:42:31;;;;;;;17.92;13.65;;;8.30;99.90;;;;;;4943015;28;20122;-67
2023/04/10 06:44:57;;;;;;;15.77;13.18;;;8.40;99.90;;;;;;4935801;28;20039;-67
2023/04/10 06:47:22;;;;;;;16.80;12.82;;;8.60;99.90;;;;;;4944427;28;20109;-67
2023/04/10 06:49:48;;;;;;;17.98;14.48;;;8.70;99.90;;;;;;4938105;28;20039;-67
2023/04/10 06:52:14;;;;;;;18.63;14.00;;;8.80;99.90;;;;;;4939492;28;20172;-67
2023/04/10 06:54:40;;;;;;;16.50;13.10;;;9.10;99.90;;;;;;4939890;28;20070;-67
2023/04/10 06:57:06;;;;;;;14.27;11.73;;;9.20;99.90;;;;;;4936075;28;20081;-67
2023/04/10 06:59:33;;;;;;;12.35;10.73;;;9.30;99.90;;;;;;4944056;28;20125;-67
2023/04/10 07:01:59;;;;;;;12.07;10.77;;;9.50;99.90;;;;;;4931219;28;20089;-67
2023/04/10 07:04:25;;;;;;;12.23;9.90;;;9.70;99.90;;;;;;4928180;28;20123;-67
2023/04/10 07:06:50;;;;;;;12.40;9.90;;;9.90;99.90;;;;;;4940077;28;20484;-70
2023/04/10 07:09:16;;;;;;;11.48;9.68;;;10.10;99.90;;;;;;4940527;28;20407;-67
2023/04/10 07:11:42;;;;;;;22.52;10.38;;;10.30;99.90;;;;;;4942309;28;20027;-67
2023/04/10 07:14:08;;;;;;;12.65;9.68;;;10.50;99.90;;;;;;4944772;28;20046;-67
2023/04/10 07:16:33;;;;;;;9.75;8.48;;;10.80;99.90;;;;;;4949157;28;20034;-68
2023/04/10 07:18:59;;;;;;;10.05;8.90;;;11.00;99.90;;;;;;4947379;28;20050;-67
2023/04/10 07:21:26;;;;;;;10.68;9.15;;;11.30;99.90;;;;;;4935245;28;20376;-67
2023/04/10 07:23:52;;;;;;;11.20;8.85;;;11.50;99.90;;;;;;4936976;28;20666;-67
2023/04/10 07:26:17;;;;;;;11.90;9.10;;;11.70;99.90;;;;;;4948535;28;20035;-69
2023/04/10 07:28:43;;;;;;;9.93;7.95;;;11.90;99.90;;;;;;4931723;28;20047;-69
2023/04/10 07:31:10;;;;;;;9.27;8.38;;;12.00;99.90;;;;;;4934980;28;20026;-70
2023/04/10 07:33:39;;;;;;;8.48;7.55;;;12.10;99.90;;;;;;4934304;28;20058;-72
2023/04/10 07:36:05;;;;;;;6.85;6.15;;;12.30;99.90;;;;;;4942283;28;20035;-71
2023/04/10 07:38:32;;;;;;;7.65;6.85;;;12.50;99.90;;;;;;4961375;28;20061;-71
2023/04/10 07:40:58;;;;;;;7.88;6.38;;;12.70;99.90;;;;;;4940410;28;20906;-71
2023/04/10 07:43:24;;;;;;;6.60;6.00;;;12.80;99.90;;;;;;4963480;28;20141;-69
2023/04/10 07:45:50;;;;;;;7.15;6.07;;;12.90;99.90;;;;;;4938710;28;20022;-70
2023/04/10 07:48:15;;;;;;;7.00;6.25;;;13.00;99.90;;;;;;4946811;28;20096;-75
2023/04/10 07:50:41;;;;;;;7.20;6.50;;;13.20;99.90;;;;;;4954107;28;20775;-69
2023/04/10 07:53:06;;;;;;;7.05;5.95;;;13.20;99.90;;;;;;4959908;28;20042;-69
2023/04/10 07:55:43;;;;;;;7.45;5.43;;;13.30;99.90;;;;;;4960590;28;20458;-69
2023/04/10 07:58:09;;;;;;;5.95;5.43;;;13.40;99.90;;;;;;4958439;28;20042;-69
2023/04/10 08:00:35;;;;;;;5.75;5.15;;;13.60;99.90;;;;;;4960570;28;20042;-70
2023/04/10 08:03:01;;;;;;;4.70;4.30;;;13.70;99.90;;;;;;4958501;28;20042;-69
2023/04/10 08:05:27;;;;;;;4.80;4.30;;;13.80;98.30;;;;;;4960345;28;20030;-69
2023/04/10 08:07:53;;;;;;;4.93;4.32;;;13.80;96.80;;;;;;4959952;28;20422;-68
2023/04/10 08:10:18;;;;;;;5.38;4.88;;;13.90;97.80;;;;;;4962131;28;20031;-69
2023/04/10 08:12:44;;;;;;;5.03;4.53;;;13.90;95.80;;;;;;4962195;28;20035;-69
2023/04/10 08:15:10;;;;;;;3.88;3.47;;;14.00;92.70;;;;;;4958484;28;20026;-69
2023/04/10 08:17:36;;;;;;;14.73;12.68;;;14.00;92.20;;;;;;4959668;28;20450;-69
2023/04/10 08:20:02;;;;;;;5.00;4.50;;;14.10;91.60;;;;;;4962023;28;20046;-69
2023/04/10 08:22:28;;;;;;;4.47;4.07;;;14.20;93.40;;;;;;4957021;28;20090;-68
2023/04/10 08:24:53;;;;;;;5.25;3.78;;;14.30;92.70;;;;;;4933241;28;20578;-69
2023/04/10 08:27:19;;;;;;;5.15;4.65;;;14.30;89.90;;;;;;4955644;28;20283;-66
2023/04/10 08:29:44;;;;;;;4.50;4.10;;;14.30;91.70;;;;;;4963948;28;20133;-65
2023/04/10 08:32:10;;;;;;;4.82;4.40;;;14.50;88.40;;;;;;4941845;28;20054;-67
2023/04/10 08:34:36;;;;;;;5.72;4.03;;;14.50;89.40;;;;;;4957398;28;20097;-66
2023/04/10 08:37:06;;;;;;;4.93;4.43;;;14.60;84.60;;;;;;4933596;28;20089;-65
2023/04/10 08:39:34;;;;;;;5.28;4.80;;;14.70;86.60;;;;;;4959440;28;20096;-66
2023/04/10 08:42:00;;;;;;;5.57;5.07;;;14.70;87.00;;;;;;4959217;28;20096;-67
2023/04/10 08:44:26;;;;;;;5.18;4.75;;;14.70;87.90;;;;;;4968476;28;20126;-68
2023/04/10 08:46:52;;;;;;;5.32;4.32;;;14.60;85.20;;;;;;4965725;28;20321;-67
2023/04/10 08:49:30;;;;;;;7.05;5.00;;;14.50;85.40;;;;;;4964010;28;21014;-67
2023/04/10 08:51:57;;;;;;;4.95;4.45;;;14.60;89.70;;;;;;4966894;28;21662;-68
2023/04/10 08:54:33;;;;;;;5.53;4.32;;;14.80;86.70;;;;;;4962124;28;20539;-67
2023/04/10 08:57:03;;;;;;;12.00;5.38;;;14.90;83.70;;;;;;4959993;28;20053;-68
2023/04/10 08:59:32;;;;;;;5.10;4.60;;;14.80;87.60;;;;;;4942780;28;20030;-67
2023/04/10 09:01:58;;;;;;;5.00;4.60;;;14.90;86.80;;;;;;4962471;28;20054;-67
2023/04/10 09:04:25;;;;;;;4.85;4.30;;;14.90;83.20;;;;;;4963406;28;20030;-67
2023/04/10 09:06:53;;;;;;;4.45;4.05;;;14.90;86.80;;;;;;4954418;28;20177;-66
2023/04/10 09:09:19;;;;;;;5.15;4.53;;;14.90;84.40;;;;;;4966490;28;20045;-65
2023/04/10 09:11:51;;;;;;;4.95;4.50;;;14.90;88.20;;;;;;4971549;28;20050;-65
2023/04/10 09:14:28;;;;;;;5.22;4.72;;;15.10;84.80;;;;;;4973895;28;20046;-68
2023/04/10 09:17:16;;;;;;;4.85;4.32;;;15.10;82.60;;;;;;4973335;28;20065;-68
2023/04/10 09:19:43;;;;;;;5.28;4.57;;;15.00;83.40;;;;;;4970798;28;20042;-68
2023/04/10 09:22:10;;;;;;;5.25;4.70;;;15.00;85.40;;;;;;4967419;28;24175;-68
2023/04/10 09:24:39;;;;;;;5.05;4.55;;;14.90;85.30;;;;;;4971540;28;20031;-67
2023/04/10 09:27:05;;;;;;;4.82;4.43;;;14.90;86.60;;;;;;4978178;28;20034;-66
2023/04/10 09:29:48;;;;;;;4.70;4.30;;;14.80;84.20;;;;;;4971309;28;20046;-66
2023/04/10 09:32:43;;;;;;;6.28;4.00;;;14.80;83.50;;;;;;4972376;28;20049;-68
2023/04/10 09:35:12;;;;;;;5.53;5.03;;;14.80;81.30;;;;;;4973240;28;20057;-67
2023/04/10 09:37:40;;;;;;;10.10;9.10;;;14.80;83.60;;;;;;4969720;28;20942;-67
2023/04/10 09:40:18;;;;;;;6.20;5.28;;;14.70;83.90;;;;;;4971966;28;20798;-67
2023/04/10 09:42:44;;;;;;;10.10;6.70;;;14.70;82.40;;;;;;4972659;28;20517;-67
2023/04/10 09:45:09;;;;;;;29.55;23.85;;;14.60;81.10;;;;;;4973708;28;20050;-67
2023/04/10 09:47:35;;;;;;;18.05;15.20;;;14.50;82.40;;;;;;4975222;28;21094;-69
2023/04/10 09:50:00;;;;;;;7.53;4.75;;;14.40;81.60;;;;;;4971327;28;21368;-65
2023/04/10 09:52:33;;;;;;;6.38;5.20;;;14.30;82.70;;;;;;4966808;28;20093;-68
2023/04/10 09:55:00;;;;;;;5.65;5.15;;;14.10;83.70;;;;;;4964986;28;20125;-68
2023/04/10 09:57:29;;;;;;;5.82;5.32;;;14.00;83.40;;;;;;4963293;28;20460;-69
2023/04/10 10:00:00;;;;;;;5.20;4.70;;;14.00;86.00;;;;;;4965931;28;20027;-68
2023/04/10 10:02:28;;;;;;;10.25;9.25;;;14.10;86.90;;;;;;4966675;28;20039;-68
2023/04/10 10:04:55;;;;;;;6.65;6.00;;;14.10;83.70;;;;;;4967185;28;20042;-69
2023/04/10 10:07:22;;;;;;;8.23;7.43;;;14.20;83.40;;;;;;4961716;28;20022;-67
2023/04/10 10:09:50;;;;;;;5.43;4.35;;;14.20;83.70;;;;;;4956210;28;20034;-68
2023/04/10 10:12:22;;;;;;;5.40;4.78;;;14.20;80.50;;;;;;4968894;28;20046;-69
2023/04/10 10:15:02;;;;;;;4.97;4.57;;;14.20;84.30;;;;;;4963787;28;20636;-70
2023/04/10 10:17:35;;;;;;;5.22;4.60;;;14.20;79.70;;;;;;4967492;28;20031;-69
2023/04/10 10:20:07;;;;;;;4.45;4.05;;;14.20;83.70;;;;;;4969587;28;20062;-64
2023/04/10 10:22:35;;;;;;;6.93;4.38;;;14.30;84.00;;;;;;4986443;28;20034;-64
2023/04/10 10:25:02;;;;;;;5.95;5.45;;;14.40;85.20;;;;;;4972613;28;20105;-64
2023/04/10 10:27:31;;;;;;;6.57;4.82;;;14.50;84.00;;;;;;4964164;28;20413;-67
2023/04/10 10:29:59;;;;;;;5.38;4.70;;;14.50;84.20;;;;;;4968124;28;20041;-67
2023/04/10 10:32:26;;;;;;;4.95;4.55;;;14.50;82.00;;;;;;4963532;28;20508;-69
2023/04/10 10:34:55;;;;;;;6.30;5.03;;;14.50;81.70;;;;;;4958698;28;20042;-67
2023/04/10 10:37:20;;;;;;;5.07;4.57;;;14.60;84.70;;;;;;4964818;28;20057;-68
2023/04/10 10:40:02;;;;;;;5.30;4.75;;;14.50;83.60;;;;;;4970430;28;20031;-68
2023/04/10 10:42:56;;;;;;;6.00;5.47;;;14.50;81.70;;;;;;4975733;28;20732;-66
2023/04/10 10:45:35;;;;;;;6.05;5.45;;;14.50;80.60;;;;;;4969529;28;20057;-66
2023/04/10 10:48:00;;;;;;;5.63;4.18;;;14.40;82.80;;;;;;4966330;28;20693;-68
2023/04/10 10:50:57;;;;;;;4.70;4.30;;;14.30;83.00;;;;;;4975281;28;20046;-66
2023/04/10 10:53:43;;;;;;;4.88;4.45;;;14.30;81.80;;;;;;4970549;28;20026;-67
2023/04/10 10:56:17;;;;;;;5.70;5.10;;;14.20;83.00;;;;;;4974418;28;20126;-67
2023/04/10 10:58:47;;;;;;;18.25;15.20;;;14.20;83.70;;;;;;4979138;28;20377;-66
2023/04/10 11:01:14;;;;;;;4.90;4.50;;;14.20;84.50;;;;;;4973994;28;20117;-67
2023/04/10 11:03:40;;;;;;;4.80;4.40;;;14.30;86.70;;;;;;4975669;28;20423;-68
2023/04/10 11:06:08;;;;;;;5.30;4.80;;;14.30;85.30;;;;;;4975372;28;20038;-68
2023/04/10 11:08:44;;;;;;;4.80;4.35;;;14.30;85.00;;;;;;4971472;28;20066;-68
2023/04/10 11:11:11;;;;;;;4.95;4.43;;;14.20;85.90;;;;;;4976224;28;20152;-68
2023/04/10 11:14:03;;;;;;;6.97;4.65;;;14.20;87.20;;;;;;4973046;28;20279;-68
2023/04/10 11:16:32;;;;;;;5.47;4.97;;;14.20;85.40;;;;;;4969055;28;20058;-69
2023/04/10 11:19:06;;;;;;;6.13;5.53;;;14.30;86.10;;;;;;4980276;28;20073;-69
2023/04/10 11:21:33;;;;;;;4.88;4.47;;;14.40;86.40;;;;;;4975245;28;20499;-70
2023/04/10 11:23:59;;;;;;;4.75;4.35;;;14.40;86.30;;;;;;4975051;28;20126;-69
2023/04/10 11:26:34;;;;;;;5.63;4.80;;;14.40;84.90;;;;;;4972899;28;20037;-70
2023/04/10 11:29:02;;;;;;;5.07;4.68;;;14.40;83.70;;;;;;4970818;28;20554;-70
2023/04/10 11:31:27;;;;;;;5.53;5.03;;;14.40;83.60;;;;;;4980355;28;20034;-69
2023/04/10 11:33:57;;;;;;;4.80;4.40;;;14.40;82.90;;;;;;4975655;28;20045;-70
2023/04/10 11:36:23;;;;;;;5.00;4.50;;;14.40;84.00;;;;;;4978320;28;20034;-70
2023/04/10 11:39:07;;;;;;;4.85;4.45;;;14.40;84.10;;;;;;4973407;28;20050;-70
2023/04/10 11:41:35;;;;;;;6.30;5.38;;;14.30;85.20;;;;;;4977461;28;20117;-68
2023/04/10 11:44:04;;;;;;;5.50;5.00;;;14.20;83.70;;;;;;4964150;28;20038;-72
2023/04/10 11:46:30;;;;;;;6.32;4.70;;;14.20;86.80;;;;;;4972934;28;20146;-70
2023/04/10 11:49:00;;;;;;;6.25;4.25;;;14.20;86.20;;;;;;4976458;28;20034;-71
2023/04/10 11:51:27;;;;;;;4.75;4.35;;;14.30;81.70;;;;;;4957103;28;20051;-70
2023/04/10 11:54:10;;;;;;;4.57;4.10;;;14.30;80.40;;;;;;4974480;28;20033;-71
2023/04/10 11:56:37;;;;;;;5.22;4.13;;;14.40;82.90;;;;;;4971091;28;20050;-67
2023/04/10 11:59:08;;;;;;;5.65;4.32;;;14.60;80.30;;;;;;4977828;28;20034;-68
2023/04/10 12:01:34;;;;;;;4.67;4.17;;;14.70;83.70;;;;;;4969054;28;20045;-67
2023/04/10 12:04:00;;;;;;;7.88;7.03;;;14.80;84.00;;;;;;4967598;28;20042;-67
2023/04/10 12:06:26;;;;;;;5.82;5.25;;;14.90;84.00;;;;;;4967931;28;20104;-68
2023/04/10 12:08:53;;;;;;;8.27;6.70;;;15.00;83.00;;;;;;4965108;28;20042;-68
2023/04/10 12:11:24;;;;;;;4.88;4.38;;;15.10;85.00;;;;;;4979310;28;20570;-68
2023/04/10 12:13:54;;;;;;;3.97;3.67;;;15.30;82.20;;;;;;4970454;28;20105;-68
2023/04/10 12:16:20;;;;;;;4.28;3.90;;;15.50;83.30;;;;;;4968696;28;20049;-69
2023/04/10 12:18:48;;;;;;;5.07;4.57;;;15.50;83.50;;;;;;4964327;28;20129;-68
2023/04/10 12:21:14;;;;;;;4.57;3.97;;;15.50;84.60;;;;;;4965955;28;20043;-69
2023/04/10 12:23:40;;;;;;;4.68;4.28;;;15.60;79.70;;;;;;4970062;28;20038;-69
2023/04/10 12:26:12;;;;;;;4.50;4.10;;;15.50;80.10;;;;;;4972173;28;20070;-69
2023/04/10 12:28:39;;;;;;;5.05;4.55;;;15.50;80.60;;;;;;4971674;28;20065;-69
2023/04/10 12:31:05;;;;;;;5.18;4.68;;;15.50;81.30;;;;;;4969128;28;20116;-70
2023/04/10 12:33:31;;;;;;;4.57;4.18;;;15.60;80.40;;;;;;4983106;28;20049;-70
2023/04/10 12:35:56;;;;;;;4.35;3.63;;;15.60;80.80;;;;;;4976725;28;20027;-69
2023/04/10 12:38:40;;;;;;;4.18;3.78;;;15.70;78.70;;;;;;4951780;28;20079;-68
2023/04/10 12:41:06;;;;;;;4.40;4.00;;;15.90;78.80;;;;;;4957313;28;20102;-68
2023/04/10 12:43:33;;;;;;;4.68;4.00;;;16.00;79.90;;;;;;4960875;28;20071;-68
2023/04/10 12:45:59;;;;;;;5.18;4.68;;;16.20;81.00;;;;;;4972709;28;20043;-68
2023/04/10 12:48:24;;;;;;;4.88;4.38;;;16.30;79.00;;;;;;4958475;28;20047;-67
2023/04/10 12:50:51;;;;;;;5.75;4.75;;;16.40;78.60;;;;;;4944381;28;20046;-67
2023/04/10 12:53:17;;;;;;;7.43;6.57;;;16.50;80.70;;;;;;4949937;28;20126;-68